sensor_id;sensor_type;location;lat;lon;timestamp;P1;durP1;ratioP1;P2;durP2;ratioP2
3401;SDS011;1714;49.756;8.610;2022-07-23T00:06:53;10.18;;;5.78;;
3401;SDS011;1714;49.756;8.610;2022-07-23T00:16:55;8.43;;;5.85;;
3401;SDS011;1714;49.756;8.610;2022-07-23T00:26:57;7.68;;;5.60;;
3401;SDS011;1714;49.756;8.610;2022-07-23T00:37:00;8.05;;;6.38;;
3401;SDS011;1714;49.756;8.610;2022-07-23T00:47:01;6.22;;;5.68;;
3401;SDS011;1714;49.756;8.610;2022-07-23T00:57:06;6.93;;;5.90;;
3401;SDS011;1714;49.756;8.610;2022-07-23T01:07:09;7.88;;;4.85;;
3401;SDS011;1714;49.756;8.610;2022-07-23T01:17:11;9.10;;;5.68;;
3401;SDS011;1714;49.756;8.610;2022-07-23T01:27:13;7.53;;;5.78;;
3401;SDS011;1714;49.756;8.610;2022-07-23T01:37:22;7.97;;;5.32;;
3401;SDS011;1714;49.756;8.610;2022-07-23T01:47:25;6.00;;;5.22;;
3401;SDS011;1714;49.756;8.610;2022-07-23T01:57:27;7.72;;;5.13;;
3401;SDS011;1714;49.756;8.610;2022-07-23T02:07:29;8.00;;;4.80;;
3401;SDS011;1714;49.756;8.610;2022-07-23T02:17:32;8.07;;;6.00;;
3401;SDS011;1714;49.756;8.610;2022-07-23T02:27:34;7.32;;;5.78;;
3401;SDS011;1714;49.756;8.610;2022-07-23T02:37:37;8.05;;;5.32;;
3401;SDS011;1714;49.756;8.610;2022-07-23T02:47:40;15.98;;;8.93;;
3401;SDS011;1714;49.756;8.610;2022-07-23T02:57:42;25.88;;;15.48;;
3401;SDS011;1714;49.756;8.610;2022-07-23T03:07:45;12.55;;;8.60;;
3401;SDS011;1714;49.756;8.610;2022-07-23T03:17:47;7.25;;;6.13;;
3401;SDS011;1714;49.756;8.610;2022-07-23T03:27:48;12.57;;;6.65;;
3401;SDS011;1714;49.756;8.610;2022-07-23T03:37:51;12.68;;;6.53;;
3401;SDS011;1714;49.756;8.610;2022-07-23T03:47:52;7.85;;;6.63;;
3401;SDS011;1714;49.756;8.610;2022-07-23T03:57:54;8.70;;;6.20;;
3401;SDS011;1714;49.756;8.610;2022-07-23T04:07:57;7.53;;;6.15;;
3401;SDS011;1714;49.756;8.610;2022-07-23T04:17:59;11.43;;;7.30;;
3401;SDS011;1714;49.756;8.610;2022-07-23T04:28:12;9.50;;;6.85;;
3401;SDS011;1714;49.756;8.610;2022-07-23T04:38:15;11.70;;;6.82;;
3401;SDS011;1714;49.756;8.610;2022-07-23T04:48:20;8.25;;;7.05;;
3401;SDS011;1714;49.756;8.610;2022-07-23T04:58:30;7.00;;;6.05;;
3401;SDS011;1714;49.756;8.610;2022-07-23T05:08:32;7.40;;;6.28;;
3401;SDS011;1714;49.756;8.610;2022-07-23T05:28:54;7.80;;;6.60;;
3401;SDS011;1714;49.756;8.610;2022-07-23T05:38:55;11.02;;;6.82;;
3401;SDS011;1714;49.756;8.610;2022-07-23T05:49:02;6.72;;;5.80;;
3401;SDS011;1714;49.756;8.610;2022-07-23T05:59:30;7.33;;;6.30;;
3401;SDS011;1714;49.756;8.610;2022-07-23T06:09:33;9.18;;;6.10;;
3401;SDS011;1714;49.756;8.610;2022-07-23T06:19:35;8.38;;;6.97;;
3401;SDS011;1714;49.756;8.610;2022-07-23T06:29:37;7.95;;;5.93;;
3401;SDS011;1714;49.756;8.610;2022-07-23T06:39:41;7.97;;;6.13;;
3401;SDS011;1714;49.756;8.610;2022-07-23T06:49:43;7.38;;;5.93;;
3401;SDS011;1714;49.756;8.610;2022-07-23T06:59:46;14.75;;;7.00;;
3401;SDS011;1714;49.756;8.610;2022-07-23T07:09:55;8.45;;;6.40;;
3401;SDS011;1714;49.756;8.610;2022-07-23T07:19:57;10.95;;;6.30;;
3401;SDS011;1714;49.756;8.610;2022-07-23T07:29:58;7.97;;;6.55;;
3401;SDS011;1714;49.756;8.610;2022-07-23T07:40:00;7.55;;;6.03;;
3401;SDS011;1714;49.756;8.610;2022-07-23T07:50:03;8.93;;;6.97;;
3401;SDS011;1714;49.756;8.610;2022-07-23T08:00:06;9.07;;;6.00;;
3401;SDS011;1714;49.756;8.610;2022-07-23T08:10:11;10.10;;;6.22;;
3401;SDS011;1714;49.756;8.610;2022-07-23T08:20:13;9.00;;;7.22;;
3401;SDS011;1714;49.756;8.610;2022-07-23T08:30:16;9.23;;;5.93;;
3401;SDS011;1714;49.756;8.610;2022-07-23T08:40:19;9.52;;;6.00;;
3401;SDS011;1714;49.756;8.610;2022-07-23T08:50:21;8.60;;;6.30;;
3401;SDS011;1714;49.756;8.610;2022-07-23T09:00:25;6.72;;;5.75;;
3401;SDS011;1714;49.756;8.610;2022-07-23T09:10:27;6.25;;;5.65;;
3401;SDS011;1714;49.756;8.610;2022-07-23T09:20:28;6.47;;;5.63;;
3401;SDS011;1714;49.756;8.610;2022-07-23T09:30:32;5.95;;;5.35;;
3401;SDS011;1714;49.756;8.610;2022-07-23T09:40:35;8.25;;;5.82;;
3401;SDS011;1714;49.756;8.610;2022-07-23T09:50:37;15.05;;;5.38;;
3401;SDS011;1714;49.756;8.610;2022-07-23T10:00:39;4.85;;;4.43;;
3401;SDS011;1714;49.756;8.610;2022-07-23T10:10:42;11.07;;;5.63;;
3401;SDS011;1714;49.756;8.610;2022-07-23T10:20:47;6.32;;;5.20;;
3401;SDS011;1714;49.756;8.610;2022-07-23T10:31:00;7.25;;;5.80;;
3401;SDS011;1714;49.756;8.610;2022-07-23T10:41:40;7.60;;;5.38;;
3401;SDS011;1714;49.756;8.610;2022-07-23T10:52:14;5.78;;;5.20;;
3401;SDS011;1714;49.756;8.610;2022-07-23T11:02:20;6.38;;;5.78;;
3401;SDS011;1714;49.756;8.610;2022-07-23T11:22:38;6.70;;;5.55;;
3401;SDS011;1714;49.756;8.610;2022-07-23T11:32:44;6.95;;;5.57;;
3401;SDS011;1714;49.756;8.610;2022-07-23T11:53:00;6.60;;;5.10;;
3401;SDS011;1714;49.756;8.610;2022-07-23T12:03:02;5.80;;;5.20;;
3401;SDS011;1714;49.756;8.610;2022-07-23T12:13:07;6.55;;;5.03;;
3401;SDS011;1714;49.756;8.610;2022-07-23T12:23:13;6.35;;;5.40;;
3401;SDS011;1714;49.756;8.610;2022-07-23T12:43:24;5.50;;;5.00;;
3401;SDS011;1714;49.756;8.610;2022-07-23T12:53:41;6.53;;;4.97;;
3401;SDS011;1714;49.756;8.610;2022-07-23T13:04:07;7.00;;;5.65;;
3401;SDS011;1714;49.756;8.610;2022-07-23T13:24:20;6.88;;;5.20;;
3401;SDS011;1714;49.756;8.610;2022-07-23T13:34:24;9.87;;;6.07;;
3401;SDS011;1714;49.756;8.610;2022-07-23T13:44:26;7.82;;;4.85;;
3401;SDS011;1714;49.756;8.610;2022-07-23T13:54:27;9.45;;;5.45;;
3401;SDS011;1714;49.756;8.610;2022-07-23T14:04:29;5.20;;;4.45;;
3401;SDS011;1714;49.756;8.610;2022-07-23T14:14:31;5.78;;;4.53;;
3401;SDS011;1714;49.756;8.610;2022-07-23T14:24:34;7.07;;;4.55;;
3401;SDS011;1714;49.756;8.610;2022-07-23T14:34:36;7.05;;;4.65;;
3401;SDS011;1714;49.756;8.610;2022-07-23T14:44:38;6.18;;;4.45;;
3401;SDS011;1714;49.756;8.610;2022-07-23T14:54:42;5.97;;;4.45;;
3401;SDS011;1714;49.756;8.610;2022-07-23T15:04:44;6.25;;;5.22;;
3401;SDS011;1714;49.756;8.610;2022-07-23T15:14:45;7.53;;;4.55;;
3401;SDS011;1714;49.756;8.610;2022-07-23T15:24:47;5.53;;;4.90;;
3401;SDS011;1714;49.756;8.610;2022-07-23T15:34:49;6.50;;;4.72;;
3401;SDS011;1714;49.756;8.610;2022-07-23T15:44:51;4.90;;;4.50;;
3401;SDS011;1714;49.756;8.610;2022-07-23T15:54:53;4.80;;;4.20;;
3401;SDS011;1714;49.756;8.610;2022-07-23T16:04:55;7.78;;;4.38;;
3401;SDS011;1714;49.756;8.610;2022-07-23T16:14:57;4.63;;;4.20;;
3401;SDS011;1714;49.756;8.610;2022-07-23T16:25:05;4.50;;;4.10;;
3401;SDS011;1714;49.756;8.610;2022-07-23T16:35:08;5.60;;;4.03;;
3401;SDS011;1714;49.756;8.610;2022-07-23T16:45:14;7.17;;;4.47;;
3401;SDS011;1714;49.756;8.610;2022-07-23T16:55:15;4.95;;;4.45;;
3401;SDS011;1714;49.756;8.610;2022-07-23T17:05:17;10.77;;;4.70;;
3401;SDS011;1714;49.756;8.610;2022-07-23T17:15:19;6.93;;;4.22;;
3401;SDS011;1714;49.756;8.610;2022-07-23T17:25:21;4.85;;;4.35;;
3401;SDS011;1714;49.756;8.610;2022-07-23T17:35:23;4.43;;;3.97;;
3401;SDS011;1714;49.756;8.610;2022-07-23T17:45:25;8.52;;;5.10;;
3401;SDS011;1714;49.756;8.610;2022-07-23T17:55:27;8.07;;;4.72;;
3401;SDS011;1714;49.756;8.610;2022-07-23T18:05:29;4.65;;;4.25;;
3401;SDS011;1714;49.756;8.610;2022-07-23T18:15:31;4.60;;;4.20;;
3401;SDS011;1714;49.756;8.610;2022-07-23T18:25:33;5.00;;;4.18;;
3401;SDS011;1714;49.756;8.610;2022-07-23T18:35:34;4.43;;;3.45;;
3401;SDS011;1714;49.756;8.610;2022-07-23T18:45:36;4.60;;;3.90;;
3401;SDS011;1714;49.756;8.610;2022-07-23T18:55:38;4.80;;;3.95;;
3401;SDS011;1714;49.756;8.610;2022-07-23T19:05:44;4.83;;;4.20;;
3401;SDS011;1714;49.756;8.610;2022-07-23T19:15:46;4.10;;;3.25;;
3401;SDS011;1714;49.756;8.610;2022-07-23T19:25:47;4.03;;;3.28;;
3401;SDS011;1714;49.756;8.610;2022-07-23T19:35:52;4.18;;;3.60;;
3401;SDS011;1714;49.756;8.610;2022-07-23T19:45:59;5.10;;;3.67;;
3401;SDS011;1714;49.756;8.610;2022-07-23T19:56:02;4.72;;;3.75;;
3401;SDS011;1714;49.756;8.610;2022-07-23T20:06:03;7.40;;;5.45;;
3401;SDS011;1714;49.756;8.610;2022-07-23T20:16:05;5.57;;;5.00;;
3401;SDS011;1714;49.756;8.610;2022-07-23T20:26:09;5.68;;;4.70;;
3401;SDS011;1714;49.756;8.610;2022-07-23T20:36:11;7.13;;;4.53;;
3401;SDS011;1714;49.756;8.610;2022-07-23T20:46:13;8.25;;;5.05;;
3401;SDS011;1714;49.756;8.610;2022-07-23T20:56:18;5.60;;;4.97;;
3401;SDS011;1714;49.756;8.610;2022-07-23T21:06:21;6.25;;;5.07;;
3401;SDS011;1714;49.756;8.610;2022-07-23T21:16:23;6.22;;;5.63;;
3401;SDS011;1714;49.756;8.610;2022-07-23T21:26:25;6.38;;;5.00;;
3401;SDS011;1714;49.756;8.610;2022-07-23T21:36:30;5.70;;;4.93;;
3401;SDS011;1714;49.756;8.610;2022-07-23T21:46:35;7.28;;;4.65;;
3401;SDS011;1714;49.756;8.610;2022-07-23T21:56:37;6.18;;;4.28;;
3401;SDS011;1714;49.756;8.610;2022-07-23T22:06:44;4.80;;;4.30;;
3401;SDS011;1714;49.756;8.610;2022-07-23T22:16:47;6.60;;;4.70;;
3401;SDS011;1714;49.756;8.610;2022-07-23T22:26:49;5.05;;;4.32;;
3401;SDS011;1714;49.756;8.610;2022-07-23T22:36:51;5.93;;;4.18;;
3401;SDS011;1714;49.756;8.610;2022-07-23T22:46:53;4.57;;;4.18;;
3401;SDS011;1714;49.756;8.610;2022-07-23T22:56:55;7.43;;;4.03;;
3401;SDS011;1714;49.756;8.610;2022-07-23T23:06:56;5.53;;;4.63;;
3401;SDS011;1714;49.756;8.610;2022-07-23T23:16:58;7.65;;;4.82;;
3401;SDS011;1714;49.756;8.610;2022-07-23T23:27:01;10.30;;;4.72;;
3401;SDS011;1714;49.756;8.610;2022-07-23T23:37:03;7.57;;;4.68;;
3401;SDS011;1714;49.756;8.610;2022-07-23T23:47:05;5.32;;;4.28;;
3401;SDS011;1714;49.756;8.610;2022-07-23T23:57:06;6.57;;;4.43;;
